createdAt,value
2022-10-19T16:20:44.128Z,9.32
2022-10-19T16:23:47.872Z,9.53
2022-10-19T16:26:51.557Z,9.53
2022-10-19T16:29:55.293Z,9.50
2022-10-19T16:32:58.850Z,9.39
2022-10-19T16:36:07.153Z,9.22
2022-10-19T16:39:10.815Z,9.13
2022-10-19T16:42:14.564Z,9.16
2022-10-19T16:45:18.396Z,9.14
2022-10-19T16:48:24.205Z,8.97
2022-10-19T16:51:34.982Z,8.91
2022-10-19T16:54:38.607Z,8.86
2022-10-19T16:57:42.143Z,8.74
2022-10-19T17:00:45.654Z,8.65
2022-10-19T17:03:50.106Z,8.61
2022-10-19T17:06:55.058Z,8.56
2022-10-19T17:09:58.665Z,8.52
2022-10-19T17:13:02.339Z,8.41
2022-10-19T17:16:07.350Z,8.34
2022-10-19T17:19:12.201Z,8.34
2022-10-19T17:22:20.205Z,8.27
2022-10-19T17:25:23.797Z,8.21
2022-10-19T17:28:27.759Z,8.18
2022-10-19T17:31:31.618Z,8.10
2022-10-19T17:34:35.281Z,8.11
2022-10-19T17:37:40.121Z,8.08
2022-10-19T17:40:43.619Z,8.04
2022-10-19T17:43:48.486Z,7.99
2022-10-19T17:46:51.979Z,7.90
2022-10-19T17:49:55.508Z,7.85
2022-10-19T17:53:00.757Z,7.80
2022-10-19T17:56:07.552Z,7.72
2022-10-19T17:59:11.164Z,7.64
2022-10-19T18:02:14.803Z,7.57
2022-10-19T18:05:18.653Z,7.62
2022-10-19T18:08:23.561Z,7.59
2022-10-19T18:11:29.421Z,7.59
2022-10-19T18:14:33.010Z,7.58
2022-10-19T18:17:36.819Z,7.61
2022-10-19T18:20:40.898Z,7.60
2022-10-19T18:23:45.822Z,7.64
2022-10-19T18:26:50.270Z,7.60
2022-10-19T18:29:53.821Z,7.50
2022-10-19T18:32:57.398Z,7.50
2022-10-19T18:36:01.532Z,7.39
2022-10-19T18:39:07.557Z,7.33
2022-10-19T18:42:12.721Z,7.37
2022-10-19T18:45:16.405Z,7.32
2022-10-19T18:48:19.982Z,7.20
2022-10-19T18:51:24.572Z,7.19
2022-10-19T18:54:29.482Z,7.04
2022-10-19T18:57:33.088Z,7.03
2022-10-19T19:00:36.778Z,6.86
2022-10-19T19:03:41.588Z,6.83
2022-10-19T19:06:45.125Z,6.87
2022-10-19T19:09:51.163Z,6.81
2022-10-19T19:12:54.725Z,6.68
2022-10-19T19:15:58.978Z,6.65
2022-10-19T19:19:02.595Z,6.56
2022-10-19T19:22:08.598Z,6.56
2022-10-19T19:25:13.728Z,6.51
2022-10-19T19:28:17.319Z,6.46
2022-10-19T19:31:21.313Z,6.34
2022-10-19T19:34:24.900Z,6.32
2022-10-19T19:37:28.526Z,6.30
2022-10-19T19:40:33.488Z,6.30
2022-10-19T19:43:39.425Z,6.27
2022-10-19T19:46:43.003Z,6.22
2022-10-19T19:52:41.543Z,6.05
2022-10-19T19:55:47.730Z,6.13
2022-10-19T19:58:55.574Z,6.18
2022-10-19T20:01:59.194Z,6.09
2022-10-19T20:05:02.802Z,6.03
2022-10-19T20:08:08.035Z,5.97
2022-10-19T20:11:14.063Z,5.93
2022-10-19T20:14:18.735Z,5.91
2022-10-19T20:17:23.847Z,5.92
2022-10-19T20:20:27.387Z,5.83
2022-10-19T20:23:33.601Z,5.75
2022-10-19T20:26:37.466Z,5.65
2022-10-19T20:29:41.028Z,5.73
2022-10-19T20:32:44.610Z,5.72
2022-10-19T20:35:48.154Z,5.70
2022-10-19T20:38:54.710Z,5.61
2022-10-19T23:50:13.115Z,2.86
2022-10-19T23:53:16.863Z,3.08
2022-10-19T23:56:22.060Z,3.13
2022-10-19T23:59:25.601Z,3.17
